Time,TemperatureF,DewpointF,PressureIn,WindDirection,WindDirectionDegrees,WindSpeedMPH,WindSpeedGustMPH,Humidity,HourlyPrecipIn,Conditions,Clouds,dailyrainin,SoftwareType,DateUTC
2013-05-24 14:57:00,68.8,67.9,30.04,NE,46,0.0,1.0,97,0.23,,,1.15,WeatherCatV1.15B25,2013-05-24 19:57:00,
2013-05-24 14:58:00,68.8,67.9,30.02,NE,46,0.0,1.0,97,0.23,,,1.16,WeatherCatV1.15B25,2013-05-24 19:58:00,
2013-05-24 14:59:00,68.8,67.9,30.02,NE,46,0.0,1.0,97,0.46,,,1.17,WeatherCatV1.15B25,2013-05-24 19:59:00,
2013-05-24 15:02:00,68.8,67.9,30.02,NE,46,0.0,1.0,97,0.24,,,1.18,WeatherCatV1.15B25,2013-05-24 20:02:00,
2013-05-24 15:06:00,68.8,67.9,30.03,NE,46,0.0,1.0,97,0.19,,,1.19,WeatherCatV1.15B25,2013-05-24 20:06:00,
2013-05-24 15:11:00,68.9,68.0,30.02,NE,46,0.0,1.0,97,0.07,,,1.19,WeatherCatV1.15B25,2013-05-24 20:11:00,
2013-05-24 15:16:00,69.0,68.1,30.02,NE,46,0.0,0.0,97,0.30,,,1.21,WeatherCatV1.15B25,2013-05-24 20:16:00,
2013-05-24 16:33:00,70.6,70.0,30.00,NE,50,4.0,4.0,98,0.05,,,1.35,WeatherCatV1.15B25,2013-05-24 21:33:00,
2013-05-24 16:39:00,70.5,69.9,29.99,ENE,67,0.0,0.0,98,0.32,,,1.37,WeatherCatV1.15B25,2013-05-24 21:39:00,
2013-05-24 16:44:00,70.4,69.8,29.99,East,81,1.0,3.0,98,0.17,,,1.38,WeatherCatV1.15B25,2013-05-24 21:44:00,
2013-05-24 16:49:00,70.2,69.6,30.00,East,84,6.0,7.0,98,0.47,,,1.43,WeatherCatV1.15B25,2013-05-24 21:49:00,
2013-05-24 16:54:00,70.2,69.6,29.99,ENE,66,6.0,10.0,98,0.15,,,1.45,WeatherCatV1.15B25,2013-05-24 21:54:00,
2013-05-24 16:59:00,70.4,69.8,30.00,ESE,103,0.0,6.0,98,0.10,,,1.45,WeatherCatV1.15B25,2013-05-24 21:59:00,
2013-05-24 17:04:00,70.2,69.6,30.01,ENE,66,2.0,4.0,98,0.06,,,1.46,WeatherCatV1.15B25,2013-05-24 22:04:00,
2013-05-24 17:09:00,70.0,69.4,30.00,East,100,0.0,2.0,98,0.17,,,1.47,WeatherCatV1.15B25,2013-05-24 22:09:00,
2013-05-24 17:14:00,70.0,69.4,30.01,East,98,0.0,2.0,98,0.07,,,1.47,WeatherCatV1.15B25,2013-05-24 22:14:00,
2013-05-24 17:19:00,69.8,69.2,30.01,ESE,116,1.0,2.0,98,0.05,,,1.47,WeatherCatV1.15B25,2013-05-24 22:19:00,
2013-05-24 17:24:00,69.9,69.3,30.01,SSE,159,1.0,6.0,98,0.04,,,1.48,WeatherCatV1.15B25,2013-05-24 22:24:00,
2013-05-24 17:29:00,70.0,69.4,30.01,East,89,0.0,4.0,98,0.04,,,1.48,WeatherCatV1.15B25,2013-05-24 22:29:00,
2013-05-24 17:34:00,70.2,69.6,30.01,NE,54,3.0,5.0,98,0.04,,,1.48,WeatherCatV1.15B25,2013-05-24 22:34:00,
2013-05-24 17:39:00,70.3,69.7,30.01,East,91,4.0,9.0,98,0.00,,,1.48,WeatherCatV1.15B25,2013-05-24 22:39:00,
2013-05-24 17:44:00,70.3,69.7,30.01,ENE,66,1.0,5.0,98,0.00,,,1.48,WeatherCatV1.15B25,2013-05-24 22:44:00,
2013-05-24 17:49:00,70.3,69.7,30.01,ENE,61,1.0,2.0,98,0.00,,,1.48,WeatherCatV1.15B25,2013-05-24 22:49:00,
2013-05-24 17:54:00,70.3,69.7,30.01,East,88,2.0,2.0,98,0.00,,,1.48,WeatherCatV1.15B25,2013-05-24 22:54:00,
2013-05-24 17:59:00,70.3,69.7,30.01,East,88,0.0,0.0,98,0.00,,,1.48,WeatherCatV1.15B25,2013-05-24 22:59:00,
2013-05-24 18:04:00,70.4,69.8,30.01,East,88,0.0,0.0,98,0.00,,,1.48,WeatherCatV1.15B25,2013-05-24 23:04:00,
2013-05-24 18:09:00,70.4,69.8,30.01,East,88,0.0,1.0,98,0.00,,,1.49,WeatherCatV1.15B25,2013-05-24 23:09:00,
2013-05-24 18:14:00,70.3,69.7,30.01,East,88,1.0,1.0,98,0.00,,,1.49,WeatherCatV1.15B25,2013-05-24 23:14:00,
2013-05-24 18:19:00,70.0,69.4,30.01,East,88,0.0,2.0,98,0.00,,,1.49,WeatherCatV1.15B25,2013-05-24 23:19:00,
2013-05-24 18:24:00,70.0,69.4,30.01,East,88,2.0,2.0,98,0.00,,,1.49,WeatherCatV1.15B25,2013-05-24 23:24:00,
2013-05-24 18:29:00,69.8,69.2,30.00,East,88,0.0,2.0,98,0.00,,,1.49,WeatherCatV1.15B25,2013-05-24 23:29:00,
2013-05-24 18:34:00,69.9,69.3,30.00,ENE,59,0.0,2.0,98,0.00,,,1.49,WeatherCatV1.15B25,2013-05-24 23:34:00,
2013-05-24 18:39:00,69.9,69.3,30.00,ENE,58,0.0,3.0,98,0.00,,,1.49,WeatherCatV1.15B25,2013-05-24 23:39:00,
2013-05-24 18:44:00,69.9,69.3,30.00,ENE,77,1.0,4.0,98,0.00,,,1.49,WeatherCatV1.15B25,2013-05-24 23:44:00,
2013-05-24 18:49:00,69.8,69.2,30.00,ENE,76,0.0,6.0,98,0.00,,,1.49,WeatherCatV1.15B25,2013-05-24 23:49:00,
2013-05-24 18:54:00,69.8,69.2,30.00,East,84,3.0,4.0,98,0.00,,,1.49,WeatherCatV1.15B25,2013-05-24 23:54:00,
2013-05-24 18:59:00,69.8,69.2,30.01,East,92,0.0,6.0,98,0.00,,,1.49,WeatherCatV1.15B25,2013-05-24 23:59:00,
2013-05-24 19:04:00,69.8,69.2,30.01,ENE,78,2.0,5.0,98,0.00,,,1.49,WeatherCatV1.15B25,2013-05-25 00:04:00,
2013-05-24 19:10:00,69.8,69.2,30.01,ENE,66,0.0,1.0,98,0.00,,,1.49,WeatherCatV1.15B25,2013-05-25 00:10:00,
2013-05-24 19:15:00,69.8,69.2,30.01,ESE,106,1.0,2.0,98,0.00,,,1.49,WeatherCatV1.15B25,2013-05-25 00:15:00,
2013-05-24 19:20:00,69.8,69.2,30.02,ESE,103,0.0,2.0,98,0.00,,,1.49,WeatherCatV1.15B25,2013-05-25 00:20:00,
2013-05-24 19:25:00,69.8,69.2,30.02,East,86,0.0,4.0,98,0.00,,,1.49,WeatherCatV1.15B25,2013-05-25 00:25:00,
2013-05-24 19:30:00,69.9,69.3,30.01,NNE,14,2.0,4.0,98,0.00,,,1.49,WeatherCatV1.15B25,2013-05-25 00:30:00,
2013-05-24 19:35:00,69.9,69.3,30.01,ENE,58,3.0,3.0,98,0.00,,,1.49,WeatherCatV1.15B25,2013-05-25 00:35:00,
2013-05-24 19:40:00,69.9,69.3,30.00,NE,51,0.0,3.0,98,0.00,,,1.49,WeatherCatV1.15B25,2013-05-25 00:40:00,
2013-05-24 19:45:00,69.9,69.3,30.00,NE,56,2.0,3.0,98,0.00,,,1.49,WeatherCatV1.15B25,2013-05-25 00:45:00,
2013-05-24 19:50:00,70.0,69.4,30.00,NE,56,0.0,2.0,98,0.00,,,1.49,WeatherCatV1.15B25,2013-05-25 00:50:00,
2013-05-24 19:55:00,70.0,69.4,29.99,NE,44,2.0,3.0,98,0.00,,,1.49,WeatherCatV1.15B25,2013-05-25 00:55:00,
2013-05-24 20:00:00,70.0,69.4,29.99,ENE,60,0.0,3.0,98,0.00,,,1.49,WeatherCatV1.15B25,2013-05-25 01:00:00,
2013-05-24 20:05:00,69.9,69.3,29.99,North,5,0.0,3.0,98,0.00,,,1.49,WeatherCatV1.15B25,2013-05-25 01:05:00,
2013-05-24 20:10:00,69.8,69.2,29.99,North,355,4.0,5.0,98,0.00,,,1.49,WeatherCatV1.15B25,2013-05-25 01:10:00,
2013-05-24 20:15:00,69.7,69.1,30.00,NNE,29,0.0,1.0,98,0.00,,,1.49,WeatherCatV1.15B25,2013-05-25 01:15:00,
2013-05-24 20:20:00,69.7,69.1,30.00,NNE,29,0.0,2.0,98,0.00,,,1.49,WeatherCatV1.15B25,2013-05-25 01:20:00,
2013-05-24 20:25:00,69.7,69.1,30.01,NNE,29,0.0,1.0,98,0.00,,,1.49,WeatherCatV1.15B25,2013-05-25 01:25:00,
2013-05-24 20:30:00,69.6,69.0,30.01,NNE,29,0.0,3.0,98,0.00,,,1.49,WeatherCatV1.15B25,2013-05-25 01:30:00,
2013-05-24 20:35:00,69.6,69.0,30.01,NNE,29,0.0,0.0,98,0.00,,,1.49,WeatherCatV1.15B25,2013-05-25 01:35:00,
2013-05-24 20:40:00,69.6,69.0,30.02,NNE,29,1.0,1.0,98,0.00,,,1.49,WeatherCatV1.15B25,2013-05-25 01:40:00,
2013-05-24 20:45:00,69.6,69.0,30.01,NNE,29,0.0,2.0,98,0.00,,,1.49,WeatherCatV1.15B25,2013-05-25 01:45:00,
2013-05-24 20:50:00,69.5,68.9,30.01,NNE,29,0.0,2.0,98,0.00,,,1.49,WeatherCatV1.15B25,2013-05-25 01:50:00,
2013-05-24 20:55:00,69.5,68.9,30.01,NNE,29,0.0,2.0,98,0.00,,,1.49,WeatherCatV1.15B25,2013-05-25 01:55:00,
2013-05-24 21:00:00,69.5,68.9,30.01,NNE,29,0.0,1.0,98,0.00,,,1.49,WeatherCatV1.15B25,2013-05-25 02:00:00,
2013-05-24 21:05:00,69.6,69.0,30.01,NNE,29,2.0,2.0,98,0.00,,,1.49,WeatherCatV1.15B25,2013-05-25 02:05:00,
2013-05-24 21:10:00,69.6,69.0,30.01,NNE,29,0.0,2.0,98,0.00,,,1.49,WeatherCatV1.15B25,2013-05-25 02:10:00,
2013-05-24 21:15:00,69.6,69.0,30.02,NNE,29,0.0,1.0,98,0.00,,,1.49,WeatherCatV1.15B25,2013-05-25 02:15:00,
2013-05-24 21:20:00,69.6,69.0,30.02,NNE,29,1.0,2.0,98,0.00,,,1.49,WeatherCatV1.15B25,2013-05-25 02:20:00,
2013-05-24 21:25:00,69.6,69.0,30.02,NNE,29,1.0,2.0,98,0.00,,,1.49,WeatherCatV1.15B25,2013-05-25 02:25:00,
2013-05-24 21:30:00,69.6,69.0,30.02,NNE,29,1.0,2.0,98,0.00,,,1.49,WeatherCatV1.15B25,2013-05-25 02:30:00,
2013-05-24 21:35:00,69.7,69.1,30.02,NNE,29,2.0,3.0,98,0.00,,,1.49,WeatherCatV1.15B25,2013-05-25 02:35:00,
2013-05-24 21:41:00,69.7,69.1,30.03,NNW,346,2.0,4.0,98,0.00,,,1.49,WeatherCatV1.15B25,2013-05-25 02:41:00,
2013-05-24 21:46:00,69.7,69.1,30.03,NNW,344,0.0,4.0,98,0.00,,,1.49,WeatherCatV1.15B25,2013-05-25 02:46:00,
2013-05-24 21:51:00,69.7,69.1,30.04,NNW,344,0.0,0.0,98,0.00,,,1.49,WeatherCatV1.15B25,2013-05-25 02:51:00,
2013-05-24 21:56:00,69.7,69.1,30.04,NNW,344,0.0,1.0,98,0.00,,,1.49,WeatherCatV1.15B25,2013-05-25 02:56:00,
2013-05-24 22:01:00,69.8,69.2,30.04,NNW,344,0.0,2.0,98,0.00,,,1.49,WeatherCatV1.15B25,2013-05-25 03:01:00,
2013-05-24 22:06:00,69.8,69.2,30.04,NNW,344,1.0,4.0,98,0.00,,,1.49,WeatherCatV1.15B25,2013-05-25 03:06:00,
2013-05-24 22:11:00,69.9,69.3,30.05,NNW,344,0.0,4.0,98,0.00,,,1.49,WeatherCatV1.15B25,2013-05-25 03:11:00,
2013-05-24 22:16:00,69.9,69.3,30.05,NNW,344,0.0,4.0,98,0.00,,,1.49,WeatherCatV1.15B25,2013-05-25 03:16:00,
2013-05-24 22:21:00,69.9,69.3,30.06,NNW,348,2.0,5.0,98,0.00,,,1.49,WeatherCatV1.15B25,2013-05-25 03:21:00,
2013-05-24 22:26:00,69.9,69.3,30.06,NNW,348,1.0,2.0,98,0.00,,,1.49,WeatherCatV1.15B25,2013-05-25 03:26:00,
2013-05-24 22:31:00,70.0,69.4,30.06,North,349,1.0,4.0,98,0.00,,,1.49,WeatherCatV1.15B25,2013-05-25 03:31:00,
2013-05-24 22:36:00,70.1,69.5,30.06,North,0,1.0,2.0,98,0.00,,,1.49,WeatherCatV1.15B25,2013-05-25 03:36:00,
2013-05-24 22:41:00,70.1,69.5,30.06,NNE,17,1.0,1.0,98,0.00,,,1.49,WeatherCatV1.15B25,2013-05-25 03:41:00,
2013-05-24 22:46:00,70.1,69.5,30.06,NNE,17,1.0,2.0,98,0.00,,,1.49,WeatherCatV1.15B25,2013-05-25 03:46:00,
2013-05-24 22:51:00,70.1,69.5,30.07,NNE,19,4.0,4.0,98,0.00,,,1.49,WeatherCatV1.15B25,2013-05-25 03:51:00,
2013-05-24 22:56:00,70.1,69.5,30.07,NNE,19,2.0,2.0,98,0.00,,,1.49,WeatherCatV1.15B25,2013-05-25 03:56:00,
2013-05-24 23:01:00,70.1,69.5,30.07,North,355,1.0,4.0,98,0.00,,,1.49,WeatherCatV1.15B25,2013-05-25 04:01:00,
2013-05-24 23:02:00,70.0,69.4,30.07,NNE,22,0.0,4.0,98,0.00,,,1.49,WeatherCatV1.15B25,2013-05-25 04:02:00,
2013-05-24 23:03:00,70.1,69.5,30.07,NNE,22,1.0,2.0,98,0.00,,,1.49,WeatherCatV1.15B25,2013-05-25 04:03:00,
2013-05-24 23:04:00,70.0,69.4,30.07,NNE,22,2.0,3.0,98,0.00,,,1.49,WeatherCatV1.15B25,2013-05-25 04:04:00,
2013-05-24 23:09:00,69.9,69.3,30.07,NNE,19,2.0,4.0,98,0.00,,,1.49,WeatherCatV1.15B25,2013-05-25 04:09:00,
2013-05-24 23:14:00,69.9,69.3,30.07,NNE,19,1.0,3.0,98,0.00,,,1.49,WeatherCatV1.15B25,2013-05-25 04:14:00,
2013-05-24 23:19:00,69.8,69.2,30.07,NNE,16,0.0,1.0,98,0.00,,,1.49,WeatherCatV1.15B25,2013-05-25 04:19:00,
2013-05-24 23:24:00,69.8,69.2,30.07,NNE,16,0.0,2.0,98,0.00,,,1.49,WeatherCatV1.15B25,2013-05-25 04:24:00,
2013-05-24 23:29:00,69.7,69.1,30.07,NNE,22,1.0,5.0,98,0.00,,,1.49,WeatherCatV1.15B25,2013-05-25 04:29:00,
2013-05-24 23:34:00,69.6,69.0,30.07,NNE,22,3.0,3.0,98,0.00,,,1.49,WeatherCatV1.15B25,2013-05-25 04:34:00,
2013-05-24 23:39:00,69.5,68.9,30.07,NNE,22,1.0,2.0,98,0.00,,,1.49,WeatherCatV1.15B25,2013-05-25 04:39:00,
2013-05-24 23:44:00,69.5,68.9,30.07,NNE,22,0.0,2.0,98,0.00,,,1.49,WeatherCatV1.15B25,2013-05-25 04:44:00,
2013-05-24 23:49:00,69.5,68.9,30.07,NNE,22,0.0,0.0,98,0.00,,,1.49,WeatherCatV1.15B25,2013-05-25 04:49:00,
2013-05-24 23:54:00,69.5,68.9,30.07,NNE,22,0.0,0.0,98,0.00,,,1.49,WeatherCatV1.15B25,2013-05-25 04:54:00,
2013-05-24 23:59:00,69.6,69.0,30.07,NNE,22,0.0,2.0,98,0.00,,,1.49,WeatherCatV1.15B25,2013-05-25 04:59:00,